createdAt,value
2022-10-05T04:00:27.837Z,99.90
2022-10-05T04:03:01.969Z,99.90
2022-10-05T04:05:35.568Z,99.90
2022-10-05T04:08:08.634Z,99.90
2022-10-05T04:10:41.955Z,99.90
2022-10-05T04:13:15.385Z,99.90
2022-10-05T04:15:52.660Z,99.90
2022-10-05T04:18:26.172Z,99.90
2022-10-05T04:20:58.844Z,99.90
2022-10-05T04:23:38.236Z,99.90
2022-10-05T04:26:11.429Z,99.90
2022-10-05T04:28:48.497Z,99.90
2022-10-05T04:31:31.090Z,99.90
2022-10-05T04:34:05.391Z,99.90
2022-10-05T04:36:39.473Z,99.90
2022-10-05T04:39:15.424Z,99.90
2022-10-05T04:41:55.996Z,99.90
2022-10-05T04:44:42.189Z,99.90
2022-10-05T04:47:31.534Z,99.90
2022-10-05T04:50:16.944Z,99.90
2022-10-05T04:52:51.291Z,99.90
2022-10-05T04:55:28.100Z,99.90
2022-10-05T04:58:02.834Z,99.90
2022-10-05T05:00:40.759Z,99.90
2022-10-05T05:03:41.669Z,99.90
2022-10-05T05:06:20.414Z,99.90
2022-10-05T05:09:13.577Z,99.90
2022-10-05T05:11:50.515Z,99.90
2022-10-05T05:14:38.701Z,99.90
2022-10-05T05:17:17.884Z,99.90
2022-10-05T05:19:55.593Z,99.90
2022-10-05T05:22:31.391Z,99.90
2022-10-05T05:25:22.876Z,99.90
2022-10-05T05:27:55.280Z,99.90
2022-10-05T05:30:30.364Z,99.90
2022-10-05T05:33:09.346Z,99.90
2022-10-05T05:36:23.370Z,99.90
2022-10-05T05:39:01.907Z,99.90
2022-10-05T05:41:37.141Z,99.90
2022-10-05T05:44:15.457Z,99.90
2022-10-05T05:47:03.391Z,99.90
2022-10-05T05:49:41.987Z,99.90
2022-10-05T05:52:18.076Z,99.90
2022-10-05T05:54:51.239Z,99.90
2022-10-05T05:57:25.357Z,99.90
2022-10-05T06:00:01.852Z,99.90
2022-10-05T06:02:37.902Z,99.90
2022-10-05T06:05:23.601Z,99.90
2022-10-05T06:07:57.716Z,99.90
2022-10-05T06:10:32.973Z,99.90
2022-10-05T06:13:06.499Z,99.90
2022-10-05T06:15:40.276Z,99.90
2022-10-05T06:18:13.394Z,99.90
2022-10-05T06:20:48.993Z,99.90
2022-10-05T06:23:23.268Z,99.90
2022-10-05T06:26:15.601Z,99.90
2022-10-05T06:28:49.131Z,99.90
2022-10-05T06:31:29.710Z,99.90
2022-10-05T06:34:04.354Z,99.90
2022-10-05T06:36:40.423Z,99.90
2022-10-05T06:39:31.172Z,99.90
2022-10-05T06:42:11.837Z,99.90
2022-10-05T06:44:47.125Z,99.90
2022-10-05T06:47:23.299Z,99.90
2022-10-05T06:49:58.394Z,99.90
2022-10-05T06:52:34.224Z,99.90
2022-10-05T06:55:15.032Z,99.90
2022-10-05T06:58:02.294Z,99.90
2022-10-05T07:00:36.293Z,99.90
2022-10-05T07:03:12.874Z,99.90
2022-10-05T07:05:55.030Z,99.90
2022-10-05T07:08:33.626Z,99.90
2022-10-05T07:11:10.149Z,99.90
2022-10-05T07:13:59.162Z,99.90
2022-10-05T07:16:36.755Z,99.90
2022-10-05T07:19:15.407Z,99.90
2022-10-05T07:21:51.861Z,99.90
2022-10-05T07:24:26.940Z,99.90
2022-10-05T07:27:07.166Z,99.90
2022-10-05T07:29:43.296Z,99.90
2022-10-05T07:32:21.595Z,99.90
2022-10-05T07:34:56.929Z,99.90
2022-10-05T07:37:33.060Z,99.90
2022-10-05T07:40:09.034Z,99.90
2022-10-05T07:42:52.066Z,99.90
2022-10-05T07:45:28.570Z,99.90
2022-10-05T07:48:03.170Z,99.90
2022-10-05T07:50:35.352Z,99.90
2022-10-05T07:53:11.645Z,99.90
2022-10-05T07:55:44.935Z,99.90
2022-10-05T07:58:34.252Z,99.90
2022-10-05T08:01:08.544Z,99.90
2022-10-05T08:03:47.471Z,99.90
2022-10-05T08:06:30.202Z,99.90
2022-10-05T08:09:04.440Z,99.90
2022-10-05T08:11:38.993Z,99.90
2022-10-05T08:14:13.850Z,99.90
2022-10-05T08:16:45.913Z,99.90
2022-10-05T08:19:19.771Z,99.90
2022-10-05T08:21:54.179Z,99.90
2022-10-05T08:24:34.143Z,99.90
2022-10-05T08:27:09.448Z,99.90
2022-10-05T08:29:45.626Z,99.90
2022-10-05T08:32:21.051Z,99.90
2022-10-05T08:34:55.528Z,99.90
2022-10-05T08:37:28.214Z,99.90
2022-10-05T08:40:04.299Z,99.90
2022-10-05T08:42:59.888Z,99.90
2022-10-05T08:46:12.847Z,99.90
2022-10-05T08:49:17.715Z,99.90
2022-10-05T08:52:15.653Z,99.90
2022-10-05T08:55:08.104Z,99.90
2022-10-05T08:58:17.549Z,99.90
2022-10-05T09:00:54.653Z,99.90
2022-10-05T09:03:49.499Z,99.90
2022-10-05T09:06:43.296Z,99.90
2022-10-05T09:09:36.783Z,99.90
2022-10-05T09:12:44.221Z,99.90
2022-10-05T09:15:30.208Z,99.90
2022-10-05T09:18:14.772Z,99.90
2022-10-05T09:20:51.320Z,99.90
2022-10-05T09:23:35.008Z,99.90
2022-10-05T09:26:08.252Z,99.90
2022-10-05T09:28:44.693Z,99.90
2022-10-05T09:31:34.460Z,99.90
2022-10-05T09:34:25.190Z,99.90
2022-10-05T09:37:15.864Z,99.90
2022-10-05T09:40:21.930Z,99.90
2022-10-05T09:43:30.064Z,99.90
2022-10-05T09:46:17.583Z,73.40
2022-10-05T09:49:16.851Z,34.60
2022-10-05T09:52:27.100Z,55.40
2022-10-05T09:55:17.372Z,65.80
2022-10-05T09:58:13.010Z,71.10
2022-10-05T10:01:32.502Z,85.60
2022-10-05T10:04:33.367Z,63.80
2022-10-05T10:07:23.806Z,62.50
2022-10-05T10:10:22.522Z,85.00
2022-10-05T10:13:10.921Z,99.90
2022-10-05T10:16:04.354Z,99.90
2022-10-05T10:19:14.975Z,90.20
2022-10-05T10:22:13.428Z,27.50
2022-10-05T10:24:56.115Z,95.20
2022-10-05T10:27:40.394Z,99.90
2022-10-05T10:30:44.224Z,87.10
2022-10-05T10:34:05.138Z,50.80
2022-10-05T10:36:58.525Z,36.80
2022-10-05T10:39:36.995Z,25.30
2022-10-05T10:42:26.183Z,41.90
2022-10-05T10:45:19.566Z,52.00
2022-10-05T10:47:52.303Z,78.20
2022-10-05T10:50:37.799Z,94.10
2022-10-05T10:53:19.785Z,99.90
2022-10-05T10:55:58.662Z,99.90
2022-10-05T10:58:57.492Z,99.90
2022-10-05T11:01:31.440Z,99.90
2022-10-05T11:04:38.405Z,99.90
2022-10-05T11:07:32.536Z,99.90
2022-10-05T11:10:19.101Z,99.90
2022-10-05T11:13:23.286Z,99.90
2022-10-05T11:16:33.889Z,99.90
2022-10-05T11:19:21.728Z,99.90
2022-10-05T11:22:03.542Z,99.90
2022-10-05T11:24:44.982Z,99.90
2022-10-05T11:27:23.654Z,99.90
2022-10-05T11:30:16.940Z,99.90
2022-10-05T11:33:39.712Z,99.90
2022-10-05T11:37:03.010Z,99.90
2022-10-05T11:39:44.889Z,99.90
2022-10-05T11:42:46.980Z,7.40
2022-10-05T11:45:26.153Z,1.00
2022-10-05T11:48:23.351Z,1.00
2022-10-05T11:51:18.018Z,1.00
2022-10-05T11:53:53.756Z,1.00
2022-10-05T11:56:26.859Z,1.00
2022-10-05T11:59:00.568Z,1.00
2022-10-05T12:01:35.859Z,1.00
2022-10-05T12:04:11.947Z,1.00
2022-10-05T12:07:01.424Z,1.00
2022-10-05T12:09:51.216Z,99.90
2022-10-05T12:12:24.787Z,99.90
2022-10-05T12:14:58.840Z,1.00
2022-10-05T12:17:35.149Z,99.90
2022-10-05T12:20:10.779Z,99.90
2022-10-05T12:22:44.327Z,1.00
2022-10-05T12:25:23.941Z,99.90
2022-10-05T12:27:57.771Z,1.00
2022-10-05T12:30:32.460Z,99.90
2022-10-05T12:33:06.118Z,1.00
2022-10-05T12:35:47.869Z,42.10
2022-10-05T12:38:23.785Z,96.30
2022-10-05T12:41:02.460Z,99.90
2022-10-05T12:43:39.122Z,99.90
2022-10-05T12:46:15.562Z,40.30
2022-10-05T12:49:08.940Z,1.00
2022-10-05T12:51:41.670Z,60.00
2022-10-05T12:54:17.162Z,1.00
2022-10-05T12:56:52.726Z,1.00
2022-10-05T12:59:31.660Z,1.00
2022-10-05T13:02:06.273Z,1.00
2022-10-05T13:04:41.500Z,99.90
2022-10-05T13:07:31.619Z,99.90
2022-10-05T13:10:09.499Z,1.00
2022-10-05T13:12:44.866Z,26.30
2022-10-05T13:15:20.248Z,99.90
2022-10-05T13:17:57.390Z,99.90
2022-10-05T13:20:32.766Z,1.00
2022-10-05T13:23:08.532Z,99.90
2022-10-05T13:25:42.549Z,1.00
2022-10-05T13:28:16.927Z,1.00
2022-10-05T13:30:56.618Z,1.00
2022-10-05T13:33:45.040Z,1.00
2022-10-05T13:36:18.659Z,1.00
2022-10-05T13:38:54.036Z,97.50
2022-10-05T13:41:32.239Z,1.00
2022-10-05T13:44:12.750Z,99.90
2022-10-05T13:46:47.261Z,1.00
2022-10-05T13:49:21.040Z,1.00
2022-10-05T13:51:57.053Z,1.00
2022-10-05T13:54:40.207Z,1.00
2022-10-05T13:57:18.125Z,1.00
2022-10-05T13:59:53.233Z,1.00
2022-10-05T14:02:27.302Z,67.00
2022-10-05T14:04:59.615Z,19.00
2022-10-05T14:07:32.525Z,1.00
2022-10-05T14:10:07.194Z,1.00
2022-10-05T14:12:39.906Z,1.00
2022-10-05T14:15:21.707Z,1.00
2022-10-05T14:17:53.359Z,1.00
2022-10-05T14:20:26.066Z,99.90
2022-10-05T14:22:59.365Z,99.90
2022-10-05T14:25:31.297Z,99.90
2022-10-05T14:28:04.377Z,99.90
2022-10-05T14:30:37.421Z,99.90
2022-10-05T14:33:14.287Z,99.90
2022-10-05T14:35:47.492Z,99.90
2022-10-05T14:38:20.497Z,99.90
2022-10-05T14:41:06.105Z,99.90
2022-10-05T14:43:37.814Z,99.90
2022-10-05T14:46:25.082Z,1.00
2022-10-05T14:49:19.376Z,1.00
2022-10-05T14:51:51.287Z,1.00
2022-10-05T14:54:34.719Z,1.00
2022-10-05T14:57:08.928Z,1.00
2022-10-05T14:59:58.577Z,1.00
2022-10-05T15:03:02.740Z,1.00
2022-10-05T15:05:37.816Z,1.00
2022-10-05T15:08:19.907Z,1.00
2022-10-05T15:10:52.843Z,1.00
2022-10-05T15:13:25.694Z,1.00
2022-10-05T15:15:59.983Z,1.00
2022-10-05T15:18:38.033Z,1.00
2022-10-05T15:21:22.789Z,1.00
2022-10-05T15:23:55.818Z,1.00
2022-10-05T15:26:39.123Z,1.00
2022-10-05T15:29:18.382Z,1.00
2022-10-05T15:31:52.703Z,1.00
2022-10-05T15:34:27.624Z,1.00
2022-10-05T15:37:01.177Z,1.00
2022-10-05T15:39:36.667Z,1.00
2022-10-05T15:42:11.242Z,1.00
2022-10-05T15:44:54.236Z,1.00
2022-10-05T15:47:27.878Z,1.00
2022-10-05T15:50:05.254Z,1.00
2022-10-05T15:52:37.796Z,1.00
2022-10-05T15:55:23.460Z,1.00
2022-10-05T15:58:09.298Z,1.00
2022-10-05T16:00:43.472Z,1.00
2022-10-05T16:03:18.824Z,1.00
2022-10-05T16:05:53.504Z,1.00
2022-10-05T16:08:40.690Z,1.00
2022-10-05T16:11:19.041Z,10.10
2022-10-05T16:13:53.944Z,20.30
2022-10-05T16:16:28.305Z,43.70
2022-10-05T16:19:01.871Z,66.90
2022-10-05T16:21:36.938Z,74.70
2022-10-05T16:24:14.836Z,75.60
2022-10-05T16:27:09.624Z,77.60
2022-10-05T16:29:45.105Z,91.70
2022-10-05T16:32:18.891Z,95.10
2022-10-05T16:34:57.560Z,99.90
2022-10-05T16:37:34.602Z,99.90
2022-10-05T16:40:09.824Z,99.90
2022-10-05T16:42:44.381Z,99.90
2022-10-05T16:45:24.955Z,99.90
2022-10-05T16:48:00.988Z,99.90
2022-10-05T16:50:36.291Z,99.90
2022-10-05T16:53:12.575Z,99.90
2022-10-05T16:55:46.133Z,99.90
2022-10-05T16:58:20.093Z,99.90
2022-10-05T17:01:00.169Z,99.90
2022-10-05T17:03:42.106Z,99.90
2022-10-05T17:06:36.710Z,94.20
2022-10-05T17:09:20.035Z,1.00
2022-10-05T17:11:58.841Z,1.00
2022-10-05T17:14:36.392Z,1.00
2022-10-05T17:17:30.626Z,1.00
2022-10-05T17:20:22.999Z,1.00
2022-10-05T17:22:55.683Z,1.00
2022-10-05T17:25:34.329Z,1.00
2022-10-05T17:28:16.753Z,1.00
2022-10-05T17:30:50.517Z,1.00
2022-10-05T17:33:25.988Z,1.00
2022-10-05T17:36:15.430Z,1.00
2022-10-05T17:38:50.337Z,1.00
2022-10-05T17:41:24.652Z,1.00
2022-10-05T17:44:16.422Z,36.40
2022-10-05T17:46:49.118Z,72.70
2022-10-05T17:49:25.670Z,99.70
2022-10-05T17:52:02.256Z,99.90
2022-10-05T17:54:54.885Z,99.90
2022-10-05T17:57:27.917Z,99.90
2022-10-05T18:00:00.504Z,99.90
2022-10-05T18:02:40.380Z,99.90
2022-10-05T18:05:22.750Z,99.90
2022-10-05T18:08:30.378Z,99.90
2022-10-05T18:11:13.103Z,99.90
2022-10-05T18:13:46.786Z,99.90
2022-10-05T18:16:54.152Z,99.90
2022-10-05T18:19:25.836Z,99.90
2022-10-05T18:22:01.688Z,99.90
2022-10-05T18:24:48.506Z,99.90
2022-10-05T18:27:38.816Z,99.90
2022-10-05T18:30:34.077Z,99.90
2022-10-05T18:33:24.910Z,99.90
2022-10-05T18:36:00.707Z,99.90
2022-10-05T18:38:51.720Z,99.90
2022-10-05T18:41:29.205Z,99.90
2022-10-05T18:44:08.285Z,99.90
2022-10-05T18:46:44.275Z,99.90
2022-10-05T18:49:25.609Z,99.90
2022-10-05T18:51:59.752Z,99.90
2022-10-05T18:54:40.491Z,99.90
2022-10-05T18:57:32.648Z,99.90
2022-10-05T19:00:07.413Z,99.90
2022-10-05T19:02:41.683Z,99.90
2022-10-05T19:05:45.958Z,99.90
2022-10-05T19:08:15.603Z,99.90
2022-10-05T19:10:49.799Z,99.90
2022-10-05T19:13:29.834Z,99.90
2022-10-05T19:16:17.785Z,99.90
2022-10-05T19:18:56.903Z,99.90
2022-10-05T19:21:30.232Z,99.90
2022-10-05T19:24:09.923Z,99.90
2022-10-05T19:26:50.560Z,99.90
2022-10-05T19:29:28.698Z,99.90
2022-10-05T19:32:02.732Z,99.90
2022-10-05T19:34:45.378Z,99.90
2022-10-05T19:37:19.046Z,99.90
2022-10-05T19:39:52.500Z,99.90
2022-10-05T19:42:49.500Z,99.90
2022-10-05T19:45:22.247Z,99.90
2022-10-05T19:48:03.400Z,99.90
2022-10-05T19:50:36.427Z,99.90
2022-10-05T19:53:12.373Z,99.90
2022-10-05T19:55:44.439Z,99.90
2022-10-05T19:58:20.760Z,99.90
2022-10-05T20:00:56.604Z,99.90
2022-10-05T20:03:29.106Z,99.90
2022-10-05T20:06:03.063Z,99.90
2022-10-05T20:08:38.466Z,99.90
2022-10-05T20:11:11.595Z,99.90
2022-10-05T20:13:46.349Z,99.90
2022-10-05T20:16:20.477Z,99.90
2022-10-05T20:18:52.324Z,99.90
2022-10-05T20:21:39.924Z,99.90
2022-10-05T20:24:12.267Z,99.90
2022-10-05T20:26:45.795Z,99.90
2022-10-05T20:29:17.460Z,99.90
2022-10-05T20:31:49.168Z,99.90
2022-10-05T20:34:20.905Z,99.90
2022-10-05T20:36:53.926Z,99.90
2022-10-05T20:39:25.583Z,99.90
2022-10-05T20:41:57.300Z,99.90
2022-10-05T20:44:29.373Z,99.90
2022-10-05T20:47:01.127Z,99.90
2022-10-05T20:49:33.033Z,99.90
2022-10-05T20:52:06.187Z,99.90
2022-10-05T20:54:38.115Z,99.90
2022-10-05T20:57:09.834Z,99.90
2022-10-05T20:59:41.481Z,99.90
2022-10-05T21:02:13.150Z,99.90
2022-10-05T21:04:45.034Z,99.90
2022-10-05T21:07:18.621Z,99.90
2022-10-05T21:09:50.298Z,99.90
2022-10-05T21:12:22.034Z,99.90
2022-10-05T21:14:53.714Z,99.90
2022-10-05T21:17:25.359Z,99.90
2022-10-05T21:19:57.021Z,99.90
2022-10-05T21:22:30.030Z,99.90
2022-10-05T21:25:01.676Z,99.90
2022-10-05T21:27:33.371Z,99.90
2022-10-05T21:30:05.860Z,99.90
2022-10-05T21:32:41.836Z,99.90
2022-10-05T21:35:15.941Z,99.90
2022-10-05T21:37:48.966Z,99.90
2022-10-05T21:40:20.639Z,99.90
2022-10-05T21:42:52.325Z,99.90
2022-10-05T21:45:23.994Z,99.90
2022-10-05T21:47:55.961Z,99.90
2022-10-05T21:50:27.619Z,99.90
2022-10-05T21:53:00.710Z,99.90
2022-10-05T21:55:32.521Z,99.90
2022-10-05T21:58:04.203Z,99.90
